Time;durP1;ratioP1;P1;durP2;ratioP2;P2;SDS_P1;SDS_P2;PMS_P1;PMS_P2;Temp;Humidity;BMP_temperature;BMP_pressure;BME280_temperature;BME280_humidity;BME280_pressure;Samples;Min_cycle;Max_cycle;Signal;HPM_P1;HPM_P2
2022/01/24 00:00:49;;;;;;;37.92;5.80;;;;;;;25.67;29.45;95365.31;5008736;28;20048;-50
2022/01/24 00:03:15;;;;;;;43.75;5.75;;;;;;;25.68;29.71;95360.78;5005900;28;20149;-51
2022/01/24 00:05:43;;;;;;;40.20;6.35;;;;;;;25.64;29.94;95365.84;4989979;28;20042;-51
2022/01/24 00:08:09;;;;;;;50.78;6.63;;;;;;;25.66;29.82;95360.25;5007028;28;20034;-51
2022/01/24 00:10:47;;;;;;;51.25;5.85;;;;;;;25.64;29.90;95359.72;5010052;28;20056;-49
2022/01/24 00:18:35;;;;;;;41.10;5.93;;;;;;;25.61;29.33;95355.75;4988926;28;20125;-45
2022/01/24 00:26:49;;;;;;;41.42;6.75;;;;;;;25.56;29.59;95359.19;4981336;28;20096;-50
2022/01/24 00:29:16;;;;;;;39.72;6.03;;;;;;;25.60;29.37;95354.13;4996389;28;20031;-50
2022/01/24 00:31:41;;;;;;;48.33;5.45;;;;;;;25.63;29.30;95350.94;5006256;28;20037;-53
2022/01/24 00:34:19;;;;;;;54.13;6.22;;;;;;;25.58;29.40;95348.28;4988798;28;20065;-53
2022/01/24 00:36:48;;;;;;;40.95;6.68;;;;;;;25.56;29.87;95340.56;4989593;28;20030;-49
2022/01/24 00:39:16;;;;;;;38.80;5.90;;;;;;;25.61;29.27;95345.09;4988399;28;20121;-50
2022/01/24 00:42:10;;;;;;;36.78;5.78;;;;;;;25.57;29.63;95346.69;4990232;28;20041;-49
2022/01/24 00:47:27;;;;;;;38.20;5.57;;;;;;;25.60;29.45;95351.47;4995438;28;20041;-49
2022/01/24 00:55:23;;;;;;;30.60;5.18;;;;;;;25.61;29.19;95347.75;5003176;28;20080;-48
2022/01/24 00:57:59;;;;;;;38.35;6.22;;;;;;;25.52;29.60;95346.69;4973161;28;20061;-51
2022/01/24 01:00:27;;;;;;;41.50;6.00;;;;;;;25.59;29.22;95349.06;5004234;28;20073;-50
2022/01/24 01:02:53;;;;;;;32.50;5.15;;;;;;;25.52;29.04;95349.38;4978980;28;20040;-52
2022/01/24 01:06:05;;;;;;;36.00;5.50;;;;;;;25.53;29.12;95348.28;4998678;28;20038;-50
2022/01/24 01:19:05;;;;;;;29.95;6.07;;;;;;;25.54;29.00;95325.94;5001777;28;20065;-49
2022/01/24 01:21:35;;;;;;;29.95;5.38;;;;;;;25.49;29.51;95325.94;4989331;28;20076;-52
2022/01/24 01:24:02;;;;;;;;;;;;;;;26.08;28.57;95329.78;5002939;28;20129;-52
2022/01/24 01:26:45;;;;;;;36.45;5.80;;;;;;;25.67;29.17;95336.00;4992663;28;19940;-50
2022/01/24 01:29:26;;;;;;;28.70;4.95;;;;;;;25.56;29.17;95339.78;4988133;28;20030;-49
2022/01/24 01:34:58;;;;;;;42.60;5.88;;;;;;;25.69;28.70;95341.88;4994623;28;19957;-49
2022/01/24 01:55:51;;;;;;;24.40;5.30;;;;;;;25.50;28.86;95346.19;4981648;28;20053;-52
2022/01/24 01:58:18;;;;;;;27.70;4.60;;;;;;;25.48;29.17;95346.44;4982747;28;20038;-51
2022/01/24 02:00:53;;;;;;;34.55;5.45;;;;;;;25.45;28.81;95333.66;4967662;28;20119;-52
2022/01/24 02:03:26;;;;;;;27.23;4.97;;;;;;;25.41;28.91;95337.91;4988032;28;20196;-52
2022/01/24 02:05:54;;;;;;;30.27;4.93;;;;;;;25.47;29.04;95333.38;5007783;28;20035;-49
2022/01/24 02:08:33;;;;;;;30.20;4.75;;;;;;;25.47;28.97;95338.72;4988763;28;20057;-52
2022/01/24 02:10:59;;;;;;;21.90;4.22;;;;;;;25.42;29.54;95333.38;4987220;28;20042;-53
2022/01/24 02:13:28;;;;;;;28.00;5.35;;;;;;;25.41;28.90;95340.59;4970131;28;20038;-50
2022/01/24 02:16:29;;;;;;;31.10;5.43;;;;;;;25.44;29.23;95328.63;4970475;28;20030;-48
2022/01/24 02:19:10;;;;;;;25.77;5.05;;;;;;;25.44;28.87;95333.94;4996792;28;20050;-52
2022/01/24 02:24:37;;;;;;;24.05;5.00;;;;;;;25.46;29.22;95323.81;4989741;28;20065;-51
2022/01/24 02:27:03;;;;;;;21.13;4.20;;;;;;;25.45;29.07;95327.53;4984569;28;20034;-53
2022/01/24 02:29:48;;;;;;;23.52;4.18;;;;;;;25.44;28.96;95324.09;4985966;28;20049;-52
2022/01/24 02:32:16;;;;;;;25.70;4.65;;;;;;;25.45;29.00;95317.66;4985897;28;20042;-53
2022/01/24 02:34:45;;;;;;;26.05;4.95;;;;;;;25.45;29.21;95316.88;4994484;28;20076;-54
2022/01/24 02:37:12;;;;;;;21.90;4.47;;;;;;;25.41;29.28;95311.28;4970045;28;20046;-51
2022/01/24 02:39:50;;;;;;;24.90;4.25;;;;;;;25.40;28.98;95312.38;4979927;28;20034;-50
2022/01/24 02:53:05;;;;;;;16.95;3.70;;;;;;;25.40;29.18;95315.03;4991543;28;20048;-50
2022/01/24 02:55:32;;;;;;;22.05;4.47;;;;;;;25.35;29.00;95315.81;4987154;28;20038;-54
2022/01/24 02:57:59;;;;;;;21.42;4.10;;;;;;;25.38;28.94;95316.34;4972754;28;20034;-52
2022/01/24 03:00:27;;;;;;;16.38;4.05;;;;;;;25.35;28.89;95312.38;4985659;28;20145;-53
2022/01/24 03:03:03;;;;;;;14.90;3.63;;;;;;;25.36;29.35;95308.66;4991492;28;20038;-52
2022/01/24 03:05:29;;;;;;;18.15;4.00;;;;;;;25.39;29.19;95317.97;4987573;28;20061;-53
2022/01/24 03:08:06;;;;;;;17.35;3.72;;;;;;;25.39;28.95;95312.63;4986411;28;20042;-51
2022/01/24 03:10:44;;;;;;;17.25;3.75;;;;;;;25.41;29.25;95310.50;4988732;28;20065;-52
2022/01/24 03:15:55;;;;;;;20.58;3.90;;;;;;;25.36;29.24;95320.09;4984182;28;20075;-51
2022/01/24 03:18:21;;;;;;;18.13;3.38;;;;;;;25.32;29.10;95324.38;4997323;28;20066;-53
2022/01/24 03:20:46;;;;;;;17.95;4.32;;;;;;;25.35;28.89;95323.81;4990837;28;20057;-50
2022/01/24 03:23:13;;;;;;;14.60;3.58;;;;;;;25.37;28.61;95323.56;4991082;28;20030;-53
2022/01/24 03:25:40;;;;;;;20.63;3.42;;;;;;;25.39;28.75;95323.28;5006530;28;20043;-53
2022/01/24 03:28:08;;;;;;;19.27;3.97;;;;;;;25.38;28.86;95311.03;4994411;28;20030;-52
2022/01/24 03:30:44;;;;;;;17.40;3.72;;;;;;;25.36;28.99;95311.31;4988322;28;20192;-51
2022/01/24 03:33:10;;;;;;;14.77;3.58;;;;;;;25.38;28.76;95306.53;4989404;28;20042;-49
2022/01/24 03:35:35;;;;;;;14.27;3.42;;;;;;;25.39;28.90;95307.31;4988000;28;20034;-50
2022/01/24 03:38:01;;;;;;;16.05;4.13;;;;;;;25.38;28.67;95308.38;4986515;28;20038;-49
2022/01/24 03:40:27;;;;;;;17.15;3.25;;;;;;;25.33;28.72;95302.00;4987527;28;20041;-50
2022/01/24 03:42:52;;;;;;;12.35;3.50;;;;;;;25.42;28.45;95301.44;5005626;28;20049;-52
2022/01/24 03:45:25;;;;;;;13.15;3.33;;;;;;;25.39;28.21;95302.78;4986806;28;20137;-50
2022/01/24 03:48:06;;;;;;;11.07;3.40;;;;;;;25.39;28.54;95308.09;4986855;28;20143;-51
2022/01/24 03:50:34;;;;;;;16.95;3.60;;;;;;;25.32;28.31;95305.72;4990755;28;20038;-50
2022/01/24 03:53:00;;;;;;;12.35;3.33;;;;;;;25.33;28.69;95303.88;5001671;28;20042;-51
2022/01/24 03:55:25;;;;;;;10.85;3.60;;;;;;;25.35;28.46;95313.16;4988190;28;20110;-49
2022/01/24 03:57:51;;;;;;;12.07;3.45;;;;;;;25.34;28.53;95308.09;4972986;28;20054;-50
2022/01/24 04:00:16;;;;;;;12.90;3.22;;;;;;;25.36;28.44;95304.13;4972582;28;20031;-50
2022/01/24 04:02:47;;;;;;;13.07;3.03;;;;;;;25.32;28.29;95305.72;4992572;28;20050;-50
2022/01/24 04:05:18;;;;;;;13.73;3.97;;;;;;;25.34;28.36;95300.94;4989329;28;20046;-53
2022/01/24 04:07:46;;;;;;;11.85;3.03;;;;;;;25.33;28.40;95302.00;4998574;28;20038;-52
2022/01/24 04:10:13;;;;;;;11.65;3.08;;;;;;;25.33;28.17;95299.31;4989440;28;20104;-52
2022/01/24 04:12:40;;;;;;;15.77;4.32;;;;;;;25.27;28.54;95295.09;4989497;28;20050;-51
2022/01/24 04:15:22;;;;;;;11.80;2.60;;;;;;;25.30;28.51;95294.56;4987902;28;20034;-53
2022/01/24 04:17:48;;;;;;;12.43;3.42;;;;;;;25.31;28.31;95301.47;4993570;28;20034;-52
2022/01/24 04:23:00;;;;;;;13.95;3.38;;;;;;;25.34;28.26;95297.44;4983534;28;20044;-53
2022/01/24 04:25:31;;;;;;;11.23;3.08;;;;;;;25.29;28.18;95303.59;4989075;28;20034;-52
2022/01/24 04:27:56;;;;;;;12.68;3.20;;;;;;;25.31;28.27;95304.13;4968526;28;20095;-52
2022/01/24 04:30:25;;;;;;;9.35;3.03;;;;;;;25.26;28.33;95301.47;4987322;28;20121;-52
2022/01/24 04:32:52;;;;;;;10.70;2.70;;;;;;;25.27;28.03;95305.72;4988278;28;20034;-51
2022/01/24 04:35:18;;;;;;;11.38;3.20;;;;;;;25.29;28.39;95306.25;4987818;28;20034;-50
2022/01/24 04:37:46;;;;;;;11.57;3.40;;;;;;;25.30;28.19;95299.06;4989567;28;20117;-50
2022/01/24 04:40:11;;;;;;;9.40;3.28;;;;;;;25.30;27.93;95302.53;4978941;28;20030;-52
2022/01/24 04:42:51;;;;;;;8.32;2.67;;;;;;;25.33;28.02;95302.00;4987883;28;20045;-51
2022/01/24 04:45:50;;;;;;;;;;;;;;;25.84;27.45;95298.41;4988530;28;20042;-54
2022/01/24 04:53:49;;;;;;;9.95;2.80;;;;;;;25.31;28.18;95296.13;4987246;28;20163;-51
2022/01/24 04:56:12;;;;;;;10.02;2.72;;;;;;;25.34;27.81;95284.16;4988644;28;20038;-52
2022/01/24 04:58:45;;;;;;;7.90;3.00;;;;;;;25.27;28.01;95287.09;4971030;28;20096;-50
2022/01/24 05:01:13;;;;;;;8.43;2.85;;;;;;;25.25;28.24;95293.75;4993461;28;20121;-49
2022/01/24 05:03:42;;;;;;;9.98;3.08;;;;;;;25.24;28.17;95292.94;4996580;28;20049;-53
2022/01/24 05:06:07;;;;;;;7.60;2.80;;;;;;;25.23;28.09;95299.34;4988569;28;20041;-50
2022/01/24 05:08:35;;;;;;;7.85;2.90;;;;;;;25.26;27.80;95298.78;4986154;28;20047;-51
2022/01/24 05:11:08;;;;;;;7.90;2.75;;;;;;;25.25;28.10;95307.88;4967683;28;20047;-52
2022/01/24 05:24:38;;;;;;;7.70;3.03;;;;;;;25.17;28.17;95314.50;4986290;28;20048;-51
2022/01/24 05:27:04;;;;;;;8.07;2.60;;;;;;;25.22;27.93;95312.91;4990599;28;20034;-47
2022/01/24 05:29:41;;;;;;;5.85;2.80;;;;;;;25.15;28.17;95323.78;4985143;28;20068;-52
2022/01/24 05:32:08;;;;;;;10.30;2.72;;;;;;;25.15;28.23;95321.13;4988882;28;20042;-50
2022/01/24 05:34:38;;;;;;;7.25;2.70;;;;;;;25.18;28.15;95312.63;4994411;28;20026;-51
2022/01/24 05:37:09;;;;;;;7.75;3.15;;;;;;;25.23;27.98;95319.84;4991612;28;20077;-51
2022/01/24 05:39:37;;;;;;;8.50;2.70;;;;;;;25.27;28.07;95311.06;4995156;28;20038;-48
2022/01/24 05:42:02;;;;;;;8.68;2.90;;;;;;;25.24;27.96;95310.78;4992926;28;20042;-51
2022/01/24 05:44:30;;;;;;;9.50;3.08;;;;;;;25.23;27.75;95315.31;4989514;28;20030;-52
2022/01/24 05:46:55;;;;;;;6.97;2.92;;;;;;;25.27;27.72;95305.72;4994383;28;20038;-51
2022/01/24 05:49:21;;;;;;;6.90;2.67;;;;;;;25.24;27.82;95311.56;4992493;28;20068;-49
2022/01/24 05:51:52;;;;;;;8.00;2.97;;;;;;;25.23;28.11;95307.34;5005111;28;20034;-51
2022/01/24 05:54:17;;;;;;;9.35;3.50;;;;;;;25.28;27.43;95307.31;4991533;28;20034;-50
2022/01/24 05:56:43;;;;;;;9.52;3.78;;;;;;;25.31;27.44;95311.31;4996451;28;20061;-49
2022/01/24 05:59:08;;;;;;;6.25;3.33;;;;;;;25.30;27.44;95315.84;4992071;28;20045;-47
2022/01/24 06:01:34;;;;;;;6.28;3.03;;;;;;;25.32;27.54;95307.56;4993652;28;20041;-51
2022/01/24 06:03:59;;;;;;;7.35;2.75;;;;;;;25.31;28.02;95308.66;4990312;28;20033;-50
2022/01/24 06:06:25;;;;;;;7.03;2.90;;;;;;;25.31;27.84;95313.97;4970832;28;20046;-51
2022/01/24 06:08:52;;;;;;;10.20;3.10;;;;;;;25.31;27.98;95309.44;4990021;28;20078;-51
2022/01/24 06:11:27;;;;;;;7.65;2.83;;;;;;;25.26;28.02;95317.44;5001028;28;20042;-51
2022/01/24 06:13:52;;;;;;;8.98;2.75;;;;;;;25.26;28.51;95320.09;4984057;28;20038;-51
2022/01/24 06:16:20;;;;;;;11.27;2.70;;;;;;;25.31;27.84;95329.97;4993907;28;20052;-50
2022/01/24 06:18:47;;;;;;;11.73;2.70;;;;;;;25.28;27.86;95333.13;4989962;28;20114;-48
2022/01/24 06:21:15;;;;;;;8.90;2.88;;;;;;;25.27;27.81;95337.69;4992928;28;20042;-52
2022/01/24 06:23:41;;;;;;;7.78;2.58;;;;;;;25.30;27.78;95337.16;4993410;28;20022;-53
2022/01/24 06:26:24;;;;;;;8.50;2.95;;;;;;;25.35;27.81;95339.00;4970739;28;20042;-49
2022/01/24 06:28:50;;;;;;;8.88;2.80;;;;;;;25.31;27.51;95333.41;4981868;28;20046;-52
2022/01/24 06:31:22;;;;;;;10.27;2.72;;;;;;;25.27;27.75;95331.56;5002787;28;20033;-49
2022/01/24 06:33:52;;;;;;;9.63;2.90;;;;;;;25.30;27.94;95337.16;4997368;28;20041;-50
2022/01/24 06:36:29;;;;;;;9.48;2.88;;;;;;;25.31;27.61;95340.59;4969377;28;20045;-48
2022/01/24 06:39:10;;;;;;;11.30;2.80;;;;;;;25.27;28.03;95343.00;4981032;28;20038;-48
2022/01/24 06:41:37;;;;;;;10.90;3.08;;;;;;;25.30;27.62;95347.81;4982912;28;20038;-47
2022/01/24 06:44:03;;;;;;;9.02;2.60;;;;;;;25.31;27.39;95352.03;5001542;28;20030;-50
2022/01/24 06:46:29;;;;;;;9.32;2.63;;;;;;;25.31;27.27;95348.59;4989465;28;20096;-52
2022/01/24 06:48:54;;;;;;;11.98;2.97;;;;;;;25.26;27.76;95352.03;4983202;28;20038;-52
2022/01/24 06:51:20;;;;;;;9.55;3.10;;;;;;;25.27;27.46;95355.53;4969580;28;20117;-51
2022/01/24 06:53:48;;;;;;;8.77;2.63;;;;;;;25.30;27.56;95361.13;4968919;28;20046;-52
2022/01/24 06:56:19;;;;;;;8.93;2.72;;;;;;;25.26;27.28;95361.91;4969328;28;20034;-53
2022/01/24 06:58:44;;;;;;;6.63;2.33;;;;;;;25.26;27.53;95370.66;4990961;28;20097;-52
2022/01/24 07:01:12;;;;;;;7.20;2.17;;;;;;;25.28;27.61;95373.88;4992655;28;20034;-48
2022/01/24 07:03:40;;;;;;;8.32;2.60;;;;;;;25.20;27.51;95371.72;4987405;28;20092;-51
2022/01/24 07:06:07;;;;;;;7.70;2.67;;;;;;;25.23;27.62;95373.88;4985061;28;20041;-49
2022/01/24 07:08:33;;;;;;;9.80;2.50;;;;;;;25.22;27.53;95382.88;4984757;28;20038;-51
2022/01/24 07:11:19;;;;;;;8.40;2.60;;;;;;;25.23;27.70;95384.53;4988133;28;20037;-51
2022/01/24 07:13:45;;;;;;;6.55;2.80;;;;;;;25.23;27.62;95381.09;4983275;28;20119;-51
2022/01/24 07:16:13;;;;;;;9.02;2.50;;;;;;;25.20;28.06;95386.91;4981244;28;20100;-51
2022/01/24 07:18:58;;;;;;;6.50;2.30;;;;;;;25.21;27.89;95389.28;4999437;28;20046;-53
2022/01/24 07:21:30;;;;;;;6.07;2.25;;;;;;;25.16;27.95;95390.06;4983297;28;20064;-50
2022/01/24 07:23:57;;;;;;;7.28;2.55;;;;;;;25.20;28.21;95387.69;4983315;28;20073;-51
2022/01/24 07:26:26;;;;;;;7.15;2.33;;;;;;;25.19;28.17;95394.09;4964405;28;20038;-53
2022/01/24 07:28:52;;;;;;;6.63;2.22;;;;;;;25.17;28.35;95399.66;4978758;28;20046;-50
2022/01/24 07:31:20;;;;;;;8.07;2.38;;;;;;;25.20;28.12;95395.66;4957119;28;20042;-51
2022/01/24 07:33:45;;;;;;;5.25;2.13;;;;;;;25.22;27.95;95398.88;4963617;28;20050;-48
2022/01/24 07:36:11;;;;;;;7.03;2.35;;;;;;;25.22;28.27;95390.09;4978678;28;20080;-52
2022/01/24 07:38:39;;;;;;;6.55;2.40;;;;;;;25.17;28.24;95396.22;4983952;28;20042;-48
2022/01/24 07:41:07;;;;;;;5.70;2.55;;;;;;;25.16;28.00;95398.06;4986883;28;20124;-51
2022/01/24 07:43:33;;;;;;;7.28;3.03;;;;;;;25.16;27.92;95406.03;4982012;28;20042;-51
2022/01/24 07:45:58;;;;;;;8.65;4.20;;;;;;;25.19;27.29;95410.06;4983796;28;20088;-50
2022/01/24 07:48:24;;;;;;;6.75;3.83;;;;;;;25.18;27.24;95406.56;4984083;28;20042;-51
2022/01/24 07:50:52;;;;;;;6.00;3.70;;;;;;;25.15;27.24;95414.28;4987329;28;20080;-50
2022/01/24 07:53:18;;;;;;;6.97;4.10;;;;;;;25.16;27.14;95411.38;4985709;28;20093;-50
2022/01/24 07:55:53;;;;;;;6.43;3.60;;;;;;;25.17;27.74;95417.50;4989693;28;20050;-48
2022/01/24 07:58:24;;;;;;;4.75;3.10;;;;;;;25.18;27.45;95419.09;4989462;28;20034;-51
2022/01/24 08:00:50;;;;;;;5.45;3.13;;;;;;;25.19;27.57;95415.38;4995117;28;20046;-51
2022/01/24 08:03:17;;;;;;;7.43;2.90;;;;;;;25.18;27.90;95413.78;4988520;28;20103;-50
2022/01/24 08:05:43;;;;;;;8.15;2.67;;;;;;;25.15;27.76;95419.63;4954317;28;20077;-52
2022/01/24 08:08:09;;;;;;;8.02;2.65;;;;;;;25.15;28.01;95414.28;4989522;28;20062;-52
2022/01/24 08:10:55;;;;;;;6.65;2.83;;;;;;;25.19;27.94;95415.38;4991318;28;20036;-49
2022/01/24 08:13:21;;;;;;;5.22;2.83;;;;;;;25.15;28.08;95417.78;4987400;28;20051;-48
2022/01/24 08:15:46;;;;;;;5.30;2.60;;;;;;;25.15;28.20;95408.97;4987140;28;20049;-51
2022/01/24 08:18:14;;;;;;;5.38;2.80;;;;;;;25.15;28.46;95408.97;4970176;28;20053;-51
2022/01/24 08:20:40;;;;;;;6.22;2.28;;;;;;;25.12;28.26;95420.16;4987273;28;20122;-52
2022/01/24 08:23:11;;;;;;;4.47;2.15;;;;;;;25.10;28.60;95419.63;4986219;28;20042;-50
2022/01/24 08:25:41;;;;;;;4.53;2.28;;;;;;;25.11;28.45;95415.88;4968033;28;20085;-52
2022/01/24 08:28:09;;;;;;;4.82;2.13;;;;;;;25.12;28.29;95418.28;4991097;28;20034;-51
2022/01/24 08:30:34;;;;;;;5.88;2.47;;;;;;;25.14;28.75;95418.03;4983101;28;20042;-51
2022/01/24 08:33:04;;;;;;;6.00;2.20;;;;;;;25.15;28.41;95419.63;4985803;28;20088;-51
2022/01/24 08:35:31;;;;;;;4.38;2.17;;;;;;;25.20;28.54;95422.28;4968521;28;20140;-50
2022/01/24 08:37:57;;;;;;;4.38;2.58;;;;;;;25.17;28.50;95423.63;4951154;28;20160;-52
2022/01/24 08:40:33;;;;;;;6.03;2.08;;;;;;;25.15;28.72;95424.94;4998972;28;20053;-49
2022/01/24 08:43:06;;;;;;;4.75;2.10;;;;;;;25.12;28.91;95426.28;4969327;28;20054;-49
2022/01/24 08:48:16;;;;;;;5.25;1.77;;;;;;;25.18;28.53;95424.41;4987076;28;20117;-51
2022/01/24 08:50:41;;;;;;;4.93;1.90;;;;;;;25.23;28.61;95429.00;4970833;28;20090;-53
2022/01/24 08:53:07;;;;;;;2.65;2.13;;;;;;;25.18;28.60;95425.22;4968494;28;20042;-50
2022/01/24 08:55:33;;;;;;;7.28;2.10;;;;;;;25.16;28.76;95426.53;4973840;28;20053;-51
2022/01/24 08:58:06;;;;;;;5.63;2.17;;;;;;;25.13;28.90;95433.22;4984519;28;20065;-49
2022/01/24 09:00:34;;;;;;;4.97;2.75;;;;;;;25.18;28.60;95427.06;5000589;28;20070;-47
2022/01/24 09:03:02;;;;;;;4.72;3.03;;;;;;;25.16;28.37;95431.88;4988709;28;20045;-51
2022/01/24 09:05:34;;;;;;;6.97;3.50;;;;;;;25.18;28.05;95437.72;4987320;28;20049;-50
2022/01/24 09:08:01;;;;;;;5.25;3.15;;;;;;;25.13;27.88;95437.72;4990211;28;20046;-49
2022/01/24 09:10:27;;;;;;;5.75;3.10;;;;;;;25.12;28.54;95436.91;4992490;28;20050;-48
2022/01/24 09:12:55;;;;;;;3.58;2.42;;;;;;;25.09;28.38;95444.63;5002947;28;20034;-51
2022/01/24 09:15:21;;;;;;;6.32;2.97;;;;;;;25.10;28.26;95444.38;4980444;28;20042;-48
2022/01/24 09:17:46;;;;;;;4.25;2.72;;;;;;;25.09;28.43;95439.31;4988537;28;20053;-49
2022/01/24 09:20:12;;;;;;;6.97;2.47;;;;;;;25.14;28.21;95441.97;4965057;28;20053;-48
2022/01/24 09:22:38;;;;;;;10.63;2.60;;;;;;;25.13;28.47;95437.72;4986611;28;20057;-49
2022/01/24 09:25:05;;;;;;;7.45;2.83;;;;;;;25.13;28.46;95440.38;4983385;28;20045;-49
2022/01/24 09:27:30;;;;;;;8.88;2.58;;;;;;;25.12;28.78;95442.25;4988289;28;20046;-49
2022/01/24 09:30:14;;;;;;;8.23;2.80;;;;;;;25.15;28.94;95444.38;4986604;28;20084;-47
2022/01/24 09:32:39;;;;;;;8.90;2.53;;;;;;;25.12;28.65;95436.91;4981840;28;20058;-49
2022/01/24 09:35:06;;;;;;;5.60;2.47;;;;;;;25.13;29.02;95443.03;5001992;28;20125;-48
2022/01/24 09:37:33;;;;;;;5.00;2.70;;;;;;;25.14;28.43;95449.97;5003272;28;20100;-49
2022/01/24 09:39:59;;;;;;;8.32;2.38;;;;;;;25.10;28.91;95454.22;4991764;28;20107;-49
2022/01/24 09:42:27;;;;;;;6.88;2.55;;;;;;;25.13;28.83;95445.69;4988833;28;20030;-51
2022/01/24 09:45:04;;;;;;;9.68;2.83;;;;;;;25.11;28.84;95442.50;4986526;28;20034;-50
2022/01/24 09:47:30;;;;;;;8.65;2.47;;;;;;;25.16;29.13;95447.84;4988052;28;20030;-61
2022/01/24 09:49:57;;;;;;;6.22;2.38;;;;;;;25.12;29.38;95452.09;4980933;28;20041;-61
2022/01/24 09:52:25;;;;;;;9.60;2.33;;;;;;;25.12;29.04;95452.09;4986203;28;20034;-61
2022/01/24 09:54:53;;;;;;;6.32;2.22;;;;;;;25.11;29.20;95455.81;4980755;28;20046;-60
2022/01/24 09:57:19;;;;;;;6.97;2.25;;;;;;;25.11;29.10;95461.13;4987883;28;20037;-60
2022/01/24 09:59:44;;;;;;;7.18;2.50;;;;;;;25.11;29.40;95456.63;5004289;28;20034;-61
2022/01/24 10:02:10;;;;;;;7.10;2.50;;;;;;;25.13;29.30;95461.66;4984852;28;20038;-60
2022/01/24 10:04:38;;;;;;;7.20;2.58;;;;;;;25.07;29.58;95457.41;4969572;28;20120;-61
2022/01/24 10:07:07;;;;;;;6.97;2.28;;;;;;;25.06;29.61;95458.47;4985777;28;20034;-61
2022/01/24 10:09:37;;;;;;;10.00;2.60;;;;;;;25.08;29.36;95457.16;4983636;28;20044;-61
2022/01/24 10:17:53;;;;;;;10.63;2.58;;;;;;;25.13;29.28;95448.34;4986799;28;20056;-43
2022/01/24 10:20:26;;;;;;;5.45;2.20;;;;;;;25.11;29.31;95450.50;4986464;28;20038;-41
2022/01/24 10:23:24;;;;;;;7.40;2.20;;;;;;;25.14;29.31;95447.31;5003165;28;20038;-40
2022/01/24 10:25:55;;;;;;;13.63;2.45;;;;;;;25.11;29.18;95443.31;4981129;28;20038;-41
2022/01/24 10:28:43;;;;;;;6.63;2.20;;;;;;;25.19;29.66;95439.34;4986910;28;20033;-40
2022/01/24 10:31:12;;;;;;;12.48;2.58;;;;;;;25.13;29.71;95446.50;4983029;28;20045;-40
2022/01/24 10:33:53;;;;;;;8.73;2.53;;;;;;;25.18;29.71;95445.72;5001478;28;20035;-41
2022/01/24 10:36:50;;;;;;;6.60;2.00;;;;;;;25.26;29.60;95445.22;4979223;28;20043;-41
2022/01/24 10:39:17;;;;;;;6.00;2.22;;;;;;;25.16;29.56;95447.84;4989287;28;20046;-41
2022/01/24 10:41:59;;;;;;;7.85;2.22;;;;;;;25.12;29.51;95442.25;4986942;28;20052;-41
2022/01/24 10:44:28;;;;;;;12.23;2.38;;;;;;;25.12;29.67;95447.56;4988411;28;20038;-42
2022/01/24 10:47:13;;;;;;;6.35;2.22;;;;;;;25.24;29.44;95443.88;4985581;28;20073;-41
2022/01/24 10:49:39;;;;;;;7.70;2.30;;;;;;;25.17;29.58;95441.47;4986330;28;20030;-42
2022/01/24 10:52:18;;;;;;;6.05;2.63;;;;;;;25.11;29.48;95435.34;4981126;28;20088;-41
2022/01/24 10:54:45;;;;;;;6.68;2.15;;;;;;;25.20;29.82;95434.81;4986092;28;20070;-41
2022/01/24 10:57:26;;;;;;;7.78;2.20;;;;;;;25.18;29.99;95435.84;4997661;28;20042;-41
2022/01/24 11:00:10;;;;;;;8.32;2.08;;;;;;;25.15;29.88;95438.25;4988868;28;20038;-41
2022/01/24 11:02:40;;;;;;;10.73;2.30;;;;;;;25.16;29.69;95434.53;4983636;28;20046;-43
2022/01/24 11:05:31;;;;;;;7.85;2.03;;;;;;;25.21;29.88;95434.56;5000581;28;20034;-42
2022/01/24 11:07:59;;;;;;;6.20;2.00;;;;;;;25.21;29.81;95429.22;5001502;28;20164;-41
2022/01/24 11:10:37;;;;;;;5.22;2.08;;;;;;;25.16;29.97;95431.88;5001126;28;20042;-41
2022/01/24 11:13:07;;;;;;;6.55;2.38;;;;;;;25.17;29.91;95434.28;4986261;28;20110;-41
2022/01/24 11:15:33;;;;;;;7.93;2.30;;;;;;;25.18;29.88;95435.06;4990052;28;20080;-41
2022/01/24 11:18:07;;;;;;;7.32;1.92;;;;;;;25.16;29.98;95437.97;4984557;28;20084;-41
2022/01/24 11:20:39;;;;;;;5.93;2.17;;;;;;;25.19;30.21;95436.69;4983892;28;20052;-43
2022/01/24 11:23:05;;;;;;;6.53;2.20;;;;;;;25.21;29.81;95434.56;4987045;28;20038;-40
2022/01/24 11:25:36;;;;;;;9.45;2.45;;;;;;;25.17;29.76;95439.59;4985555;28;20045;-42
2022/01/24 11:28:02;;;;;;;7.47;2.45;;;;;;;25.16;29.92;95427.34;4986858;28;20201;-44
2022/01/24 11:31:05;;;;;;;5.50;2.45;;;;;;;25.27;29.68;95430.84;4987753;28;20042;-41
2022/01/24 11:33:43;;;;;;;6.90;2.20;;;;;;;25.22;29.82;95427.34;4988867;28;20099;-40
2022/01/24 11:36:11;;;;;;;6.80;2.22;;;;;;;25.23;29.83;95429.00;4988325;28;20045;-40
2022/01/24 11:38:45;;;;;;;6.35;2.15;;;;;;;25.17;30.16;95422.84;4989479;28;20125;-41
2022/01/24 11:41:33;;;;;;;6.70;2.10;;;;;;;25.16;29.93;95421.22;4988970;28;20072;-41
2022/01/24 11:44:11;;;;;;;6.10;2.47;;;;;;;25.17;30.15;95415.63;4987231;28;20042;-40
2022/01/24 11:46:52;;;;;;;6.90;2.25;;;;;;;25.19;30.29;95407.41;5001761;28;20038;-41
2022/01/24 11:49:41;;;;;;;6.63;2.20;;;;;;;25.21;29.81;95407.94;4985222;28;20141;-42
2022/01/24 11:52:18;;;;;;;3.23;1.73;;;;;;;25.21;29.86;95410.59;4985886;28;20105;-41
2022/01/24 11:55:15;;;;;;;7.57;2.20;;;;;;;25.24;29.62;95407.41;4969014;28;20105;-41
2022/01/24 11:57:47;;;;;;;6.10;2.05;;;;;;;25.23;29.74;95402.38;4983637;28;20128;-41
2022/01/24 12:00:12;;;;;;;5.65;2.00;;;;;;;25.26;29.96;95402.63;4983666;28;20081;-40
2022/01/24 12:02:54;;;;;;;7.95;2.10;;;;;;;25.24;29.81;95390.66;4986658;28;20073;-41
2022/01/24 12:05:24;;;;;;;4.70;1.90;;;;;;;25.20;29.99;95394.88;4987945;28;20050;-41
2022/01/24 12:08:04;;;;;;;7.10;2.20;;;;;;;25.21;30.00;95396.47;4990117;28;20042;-41
2022/01/24 12:10:34;;;;;;;7.22;2.25;;;;;;;25.26;29.47;95399.16;4985574;28;20058;-41
2022/01/24 12:13:13;;;;;;;4.55;2.10;;;;;;;25.26;29.92;95389.31;4986509;28;20038;-41
2022/01/24 12:15:39;;;;;;;3.80;2.10;;;;;;;25.24;29.68;95390.66;4979097;28;20123;-42
2022/01/24 12:18:07;;;;;;;5.85;2.03;;;;;;;25.20;30.14;95374.38;4988578;28;20042;-40
2022/01/24 12:20:43;;;;;;;5.00;1.75;;;;;;;25.24;30.01;95382.66;4985877;28;20050;-41
2022/01/24 12:23:21;;;;;;;5.85;1.92;;;;;;;25.21;30.28;95381.31;4989695;28;20046;-41
2022/01/24 12:25:58;;;;;;;5.35;1.80;;;;;;;25.23;29.96;95373.88;4984614;28;20218;-43
2022/01/24 12:28:24;;;;;;;6.22;2.05;;;;;;;25.27;29.75;95374.94;5006888;28;20061;-43
2022/01/24 12:31:20;;;;;;;7.18;2.00;;;;;;;25.33;30.12;95378.41;4988332;28;20038;-41
2022/01/24 12:34:11;;;;;;;5.95;2.00;;;;;;;25.30;30.17;95370.94;4945098;28;20055;-41
2022/01/24 12:36:39;;;;;;;;;;;;;;;;;;;;;
2022/01/24 12:39:12;;;;;;;4.40;1.95;;;;;;;25.19;30.46;95359.50;4944772;28;20066;-41
2022/01/24 12:41:39;;;;;;;5.55;1.90;;;;;;;25.21;30.03;95357.34;4915211;29;20049;-41
2022/01/24 12:47:06;;;;;;;4.57;1.90;;;;;;;25.21;30.10;95356.53;4945519;28;20046;-41
2022/01/24 12:49:32;;;;;;;4.80;1.70;;;;;;;25.27;30.46;95358.19;4947873;28;20098;-41
2022/01/24 12:52:07;;;;;;;5.70;1.95;;;;;;;25.20;30.34;95355.75;4947148;28;20043;-42
2022/01/24 12:54:42;;;;;;;5.00;1.80;;;;;;;25.23;30.30;95363.25;4926666;29;20047;-43
2022/01/24 12:57:14;;;;;;;3.97;1.70;;;;;;;25.24;30.38;95362.16;4946536;28;20051;-41
2022/01/24 13:00:19;;;;;;;6.35;1.90;;;;;;;25.29;30.43;95362.16;4946564;29;20035;-41
2022/01/24 13:02:46;;;;;;;3.78;1.83;;;;;;;25.29;30.28;95356.03;4908584;29;20107;-40
2022/01/24 13:05:14;;;;;;;7.65;2.58;;;;;;;25.25;30.05;95355.78;4906351;29;20054;-41
2022/01/24 13:07:42;;;;;;;5.88;2.05;;;;;;;25.22;30.28;95350.94;4892489;29;20056;-43
2022/01/24 13:10:13;;;;;;;6.63;2.33;;;;;;;25.23;29.70;95357.13;4878638;29;20048;-43
2022/01/24 13:12:39;;;;;;;3.47;2.40;;;;;;;25.25;29.81;95355.78;4895916;29;20058;-41
2022/01/24 13:20:22;;;;;;;6.20;3.17;;;;;;;25.19;29.25;95354.16;4905114;29;20031;-42
2022/01/24 13:21:09;;;;;;;4.20;2.47;;;;;;;25.24;29.76;95354.16;4927161;29;20062;-40
2022/01/24 13:23:40;;;;;;;4.55;2.15;;;;;;;25.17;29.65;95350.97;4905027;29;20059;-42
2022/01/24 13:26:09;;;;;;;4.10;2.17;;;;;;;25.16;29.44;95347.50;4925674;29;20055;-40
2022/01/24 13:28:43;;;;;;;4.63;2.13;;;;;;;25.15;29.81;95358.41;4911963;28;20055;-41
2022/01/24 13:31:16;;;;;;;4.78;2.05;;;;;;;25.11;29.55;95350.16;4942186;28;20043;-41